Time;durP1;ratioP1;P1;durP2;ratioP2;P2;SDS_P1;SDS_P2;PMS_P1;PMS_P2;Temp;Humidity;BMP_temperature;BMP_pressure;BME280_temperature;BME280_humidity;BME280_pressure;Samples;Min_cycle;Max_cycle;Signal;HPM_P1;HPM_P2
2022/09/20 00:00:06;;;;;;;;;;;;;;;;;;350103;28;920;-64
2022/09/20 00:00:16;;;;;;;;;;;;;;;;;;349994;28;1020;-64
2022/09/20 00:00:26;;;;;;;;;;;;;;;;;;350095;28;831;-64
2022/09/20 00:00:38;;;;;;;;;;;;;;;;;;350059;28;876;-64
2022/09/20 00:00:49;;;;;;;;;;;;;;;;;;350034;28;1003;-64
2022/09/20 00:01:06;;;;;;;;;;;;;;;;;;350050;28;912;-64
2022/09/20 00:01:19;;;;;;;;;;;;;;;;;;350006;28;1054;-63
2022/09/20 00:01:31;;;;;;;;;;;;;;;;;;350028;28;956;-64
2022/09/20 00:01:41;;;;;;;;;;;;;;;;;;350089;28;802;-64
2022/09/20 00:01:51;;;;;;;;;;;;;;;;;;350154;28;1170;-64
2022/09/20 00:02:01;;;;;;;;;;;;;;;;;;348551;28;1695;-64
2022/09/20 00:02:12;;;;;;;;;;;;;;;;;;349900;28;934;-64
2022/09/20 00:02:22;;;;;;;;;;;;;;;;;;350128;28;935;-63
2022/09/20 00:02:32;;;;;;;;;;;;;;;;;;350014;28;944;-64
2022/09/20 00:02:42;;;;;;;;;;;;;;;;;;350050;28;928;-63
2022/09/20 00:02:52;;;;;;;;;;;;;;;;;;350081;28;924;-63
2022/09/20 00:03:03;;;;;;;;;;;;;;;;;;349985;28;1106;-63
2022/09/20 00:03:13;;;;;;;;;;;;;;;;;;350046;28;929;-64
2022/09/20 00:03:24;;;;;;;;;;;;;;;;;;350048;28;979;-63
2022/09/20 00:03:38;;;;;;;;;;;;;;;;;;350011;28;936;-64
2022/09/20 00:03:50;;;;;;;;;;;;;;;;;;350084;28;877;-63
2022/09/20 00:04:03;;;;;;;;;;;;;;;;;;350108;28;928;-64
2022/09/20 00:04:13;;;;;;;;;;;;;;;;;;350032;28;944;-64
2022/09/20 00:04:24;;;;;;;;;;;;;;;;;;350050;28;909;-64
2022/09/20 00:04:34;;;;;;;;;;;;;;;;;;350078;28;908;-64
2022/09/20 00:04:46;;;;;;;;;;;;;;;;;;349986;28;1003;-64
2022/09/20 00:04:57;;;;;;;;;;;;;;;;;;350081;28;924;-64
2022/09/20 00:05:07;;;;;;;;;;;;;;;;;;350112;28;799;-64
2022/09/20 00:05:17;;;;;;;;;;;;;;;;;;350006;28;999;-64
2022/09/20 00:05:28;;;;;;;;;;;;;;;;;;350021;28;1056;-64
2022/09/20 00:05:39;;;;;;;;;;;;;;;;;;350083;28;971;-63
2022/09/20 00:05:49;;;;;;;;;;;;;;;;;;350035;28;932;-64
2022/09/20 00:06:00;;;;;;;;;;;;;;;;;;350049;28;995;-64
2022/09/20 00:06:12;;;;;;;;;;;;;;;;;;350082;28;925;-63
2022/09/20 00:06:24;;;;;;;;;;;;;;;;;;349873;28;1223;-63
2022/09/20 00:06:34;;;;;;;;;;;;;;;;;;350095;28;929;-64
2022/09/20 00:06:44;;;;;;;;;;;;;;;;;;350070;28;979;-63
2022/09/20 00:06:55;;;;;;;;;;;;;;;;;;350052;28;860;-64
2022/09/20 00:07:05;;;;;;;;;;;;;;;;;;350066;28;956;-64
2022/09/20 00:07:15;;;;;;;;;;;;;;;;;;350061;28;1093;-64
2022/09/20 00:07:25;;;;;;;;;;;;;;;;;;350005;28;893;-64
2022/09/20 00:07:35;;;;;;;;;;;;;;;;;;350053;28;955;-64
2022/09/20 00:07:46;;;;;;;;;;;;;;;;;;350054;28;774;-64
2022/09/20 00:07:56;;;;;;;;;;;;;;;;;;350035;28;913;-63
2022/09/20 00:08:07;;;;;;;;;;;;;;;;;;350079;28;794;-64
2022/09/20 00:08:18;;;;;;;;;;;;;;;;;;350102;28;928;-63
2022/09/20 00:08:28;;;;;;;;;;;;;;;;;;350029;28;924;-64
2022/09/20 00:08:39;;;;;;;;;;;;;;;;;;350085;28;897;-64
2022/09/20 00:08:49;;;;;;;;;;;;;;;;;;350048;28;936;-64
2022/09/20 00:09:00;;;;;;;;;;;;;;;;;;349992;28;1027;-64
2022/09/20 00:09:11;;;;;;;;;;;;;;;;;;350100;28;766;-64
2022/09/20 00:09:21;;;;;;;;;;;;;;;;;;350098;28;854;-64
2022/09/20 00:09:32;;;;;;;;;;;;;;;;;;350072;28;972;-64
2022/09/20 00:09:42;;;;;;;;;;;;;;;;;;350018;28;924;-64
2022/09/20 00:09:52;;;;;;;;;;;;;;;;;;350032;28;796;-63
2022/09/20 00:10:02;;;;;;;;;;;;;;;;;;352728;28;951;-64
2022/09/20 00:10:13;;;;;;;;;;;;;;;;;;352744;28;956;-64
2022/09/20 00:10:23;;;;;;;;;;;;;;;;;;352704;28;991;-64
2022/09/20 00:10:38;;;;;;;;;;;;;;;;;;352742;28;912;-64
2022/09/20 00:10:48;;;;;;;;;;;;;;;;;;352754;28;924;-64
2022/09/20 00:11:05;;;;;;;;;;;;;;;;;;352731;28;1006;-64
2022/09/20 00:11:17;;;;;;;;;;;;;;;;;;352750;28;805;-64
2022/09/20 00:11:29;;;;;;;;;;;;;;;;;;352728;28;865;-63
2022/09/20 00:11:39;;;;;;;;;;;;;;;;;;352701;28;880;-64
2022/09/20 00:11:50;;;;;;;;;;;;;;;;;;352726;28;928;-63
2022/09/20 00:12:00;;;;;;;;;;;;;;;;;;350984;28;1017;-64
2022/09/20 00:12:11;;;;;;;;;;;;;;;;;;350078;28;909;-64
2022/09/20 00:12:21;;;;;;;;;;;;;;;;;;350098;28;988;-63
2022/09/20 00:12:31;;;;;;;;;;;;;;;;;;349957;28;1898;-64
2022/09/20 00:12:41;;;;;;;;;;;;;;;;;;349999;28;971;-64
2022/09/20 00:12:51;;;;;;;;;;;;;;;;;;349955;28;915;-64
2022/09/20 00:13:02;;;;;;;;;;;;;;;;;;350076;28;936;-63
2022/09/20 00:13:12;;;;;;;;;;;;;;;;;;350082;28;971;-64
2022/09/20 00:13:22;;;;;;;;;;;;;;;;;;350025;28;983;-64
2022/09/20 00:13:34;;;;;;;;;;;;;;;;;;350052;28;913;-64
2022/09/20 00:13:45;;;;;;;;;;;;;;;;;;349984;28;1007;-64
2022/09/20 00:13:57;;;;;;;;;;;;;;;;;;350022;28;936;-64
2022/09/20 00:14:07;;;;;;;;;;;;;;;;;;349985;28;996;-64
2022/09/20 00:14:18;;;;;;;;;;;;;;;;;;350075;28;782;-63
2022/09/20 00:14:28;;;;;;;;;;;;;;;;;;350062;28;901;-63
2022/09/20 00:14:38;;;;;;;;;;;;;;;;;;350042;28;1104;-64
2022/09/20 00:14:48;;;;;;;;;;;;;;;;;;350063;28;986;-64
2022/09/20 00:14:58;;;;;;;;;;;;;;;;;;350006;28;940;-64
2022/09/20 00:15:09;;;;;;;;;;;;;;;;;;350091;28;861;-63
2022/09/20 00:15:19;;;;;;;;;;;;;;;;;;350114;28;777;-64
2022/09/20 00:15:29;;;;;;;;;;;;;;;;;;350074;28;971;-64
2022/09/20 00:15:43;;;;;;;;;;;;;;;;;;349426;28;1411;-64
2022/09/20 00:15:53;;;;;;;;;;;;;;;;;;348896;28;1323;-64
2022/09/20 00:16:05;;;;;;;;;;;;;;;;;;350062;28;909;-64
2022/09/20 00:16:20;;;;;;;;;;;;;;;;;;350076;28;885;-63
2022/09/20 00:16:35;;;;;;;;;;;;;;;;;;349958;28;1253;-64
2022/09/20 00:16:45;;;;;;;;;;;;;;;;;;350039;28;928;-64
2022/09/20 00:16:55;;;;;;;;;;;;;;;;;;350018;28;1139;-63
2022/09/20 00:17:05;;;;;;;;;;;;;;;;;;350059;28;908;-64
2022/09/20 00:17:15;;;;;;;;;;;;;;;;;;348796;28;1864;-64
2022/09/20 00:17:26;;;;;;;;;;;;;;;;;;350060;28;896;-64
2022/09/20 00:17:36;;;;;;;;;;;;;;;;;;350052;28;967;-64
2022/09/20 00:17:46;;;;;;;;;;;;;;;;;;350080;28;853;-64
2022/09/20 00:17:56;;;;;;;;;;;;;;;;;;349960;28;991;-64
2022/09/20 00:18:07;;;;;;;;;;;;;;;;;;349984;28;925;-64
2022/09/20 00:18:17;;;;;;;;;;;;;;;;;;350052;28;1091;-64
2022/09/20 00:18:27;;;;;;;;;;;;;;;;;;350021;28;1063;-64
2022/09/20 00:18:37;;;;;;;;;;;;;;;;;;350001;28;873;-64
2022/09/20 00:18:48;;;;;;;;;;;;;;;;;;349973;28;937;-64
2022/09/20 00:18:59;;;;;;;;;;;;;;;;;;349862;28;1070;-64
2022/09/20 00:19:15;;;;;;;;;;;;;;;;;;349944;28;971;-64
2022/09/20 00:19:26;;;;;;;;;;;;;;;;;;349933;28;995;-64
2022/09/20 00:19:36;;;;;;;;;;;;;;;;;;349937;28;924;-64
2022/09/20 00:19:46;;;;;;;;;;;;;;;;;;349940;28;903;-64
2022/09/20 00:19:57;;;;;;;;;;;;;;;;;;349919;28;953;-64
2022/09/20 00:20:07;;;;;;;;;;;;;;;;;;349877;28;819;-64
2022/09/20 00:20:17;;;;;;;;;;;;;;;;;;349934;28;1068;-64
2022/09/20 00:20:28;;;;;;;;;;;;;;;;;;349945;28;905;-64
2022/09/20 00:20:48;;;;;;;;;;;;;;;;;;350042;28;1122;-64
2022/09/20 00:20:58;;;;;;;;;;;;;;;;;;350206;28;1390;-64
2022/09/20 00:21:14;;;;;;;;;;;;;;;;;;351407;28;899;-64
2022/09/20 00:21:26;;;;;;;;;;;;;;;;;;351402;28;860;-64
2022/09/20 00:21:36;;;;;;;;;;;;;;;;;;351419;28;983;-64
2022/09/20 00:21:46;;;;;;;;;;;;;;;;;;351372;28;936;-64
2022/09/20 00:21:57;;;;;;;;;;;;;;;;;;351443;28;904;-64
2022/09/20 00:22:07;;;;;;;;;;;;;;;;;;351364;28;900;-64
2022/09/20 00:22:17;;;;;;;;;;;;;;;;;;351416;28;961;-64
2022/09/20 00:22:27;;;;;;;;;;;;;;;;;;351437;28;857;-64
2022/09/20 00:22:38;;;;;;;;;;;;;;;;;;351442;28;908;-64
2022/09/20 00:22:48;;;;;;;;;;;;;;;;;;351419;28;861;-64
2022/09/20 00:22:58;;;;;;;;;;;;;;;;;;351468;28;924;-64
2022/09/20 00:23:08;;;;;;;;;;;;;;;;;;351382;28;924;-64
2022/09/20 00:23:19;;;;;;;;;;;;;;;;;;351395;28;927;-64
2022/09/20 00:23:30;;;;;;;;;;;;;;;;;;351447;28;975;-64
2022/09/20 00:23:40;;;;;;;;;;;;;;;;;;351435;28;978;-64
2022/09/20 00:23:51;;;;;;;;;;;;;;;;;;351366;28;924;-64
2022/09/20 00:24:01;;;;;;;;;;;;;;;;;;351502;28;841;-64
2022/09/20 00:24:12;;;;;;;;;;;;;;;;;;351365;28;924;-64
2022/09/20 00:24:22;;;;;;;;;;;;;;;;;;351442;28;805;-64
2022/09/20 00:24:35;;;;;;;;;;;;;;;;;;351475;28;916;-64
2022/09/20 00:24:46;;;;;;;;;;;;;;;;;;351411;28;1073;-63
2022/09/20 00:24:56;;;;;;;;;;;;;;;;;;351474;28;932;-63
2022/09/20 00:25:07;;;;;;;;;;;;;;;;;;351395;28;924;-64
2022/09/20 00:25:18;;;;;;;;;;;;;;;;;;351449;28;971;-64
2022/09/20 00:25:28;;;;;;;;;;;;;;;;;;351359;28;952;-64
2022/09/20 00:25:38;;;;;;;;;;;;;;;;;;351441;28;877;-64
2022/09/20 00:25:56;;;;;;;;;;;;;;;;;;351429;28;963;-64
2022/09/20 00:26:06;;;;;;;;;;;;;;;;;;351376;28;1012;-64
2022/09/20 00:26:17;;;;;;;;;;;;;;;;;;351335;28;901;-64
2022/09/20 00:26:27;;;;;;;;;;;;;;;;;;351470;28;980;-64
2022/09/20 00:26:39;;;;;;;;;;;;;;;;;;351410;28;920;-64
2022/09/20 00:26:50;;;;;;;;;;;;;;;;;;351424;28;955;-64
2022/09/20 00:27:01;;;;;;;;;;;;;;;;;;351430;28;894;-64
2022/09/20 00:27:11;;;;;;;;;;;;;;;;;;351468;27;1638;-64
2022/09/20 00:27:22;;;;;;;;;;;;;;;;;;351394;28;1019;-64
2022/09/20 00:27:32;;;;;;;;;;;;;;;;;;351499;28;782;-64
2022/09/20 00:27:42;;;;;;;;;;;;;;;;;;351412;28;995;-64
2022/09/20 00:27:53;;;;;;;;;;;;;;;;;;350462;28;1299;-64
2022/09/20 00:28:03;;;;;;;;;;;;;;;;;;350017;28;992;-63
2022/09/20 00:28:13;;;;;;;;;;;;;;;;;;350043;28;964;-64
2022/09/20 00:28:24;;;;;;;;;;;;;;;;;;349959;28;1031;-64
2022/09/20 00:28:34;;;;;;;;;;;;;;;;;;350052;28;909;-64
2022/09/20 00:28:45;;;;;;;;;;;;;;;;;;350014;28;908;-64
2022/09/20 00:28:56;;;;;;;;;;;;;;;;;;349969;28;1001;-63
2022/09/20 00:29:06;;;;;;;;;;;;;;;;;;350051;28;920;-64
2022/09/20 00:29:17;;;;;;;;;;;;;;;;;;350036;28;869;-64
2022/09/20 00:29:27;;;;;;;;;;;;;;;;;;350075;28;775;-64
2022/09/20 00:29:37;;;;;;;;;;;;;;;;;;350010;28;977;-64
2022/09/20 00:29:47;;;;;;;;;;;;;;;;;;350025;28;940;-64
2022/09/20 00:29:58;;;;;;;;;;;;;;;;;;350076;28;892;-64
2022/09/20 00:30:08;;;;;;;;;;;;;;;;;;349995;28;913;-64
2022/09/20 00:30:18;;;;;;;;;;;;;;;;;;349964;28;973;-64
2022/09/20 00:30:30;;;;;;;;;;;;;;;;;;348812;28;1421;-64
2022/09/20 00:30:40;;;;;;;;;;;;;;;;;;349082;28;1713;-64
2022/09/20 00:30:51;;;;;;;;;;;;;;;;;;348865;28;934;-64
2022/09/20 00:31:01;;;;;;;;;;;;;;;;;;348677;28;929;-64
2022/09/20 00:31:12;;;;;;;;;;;;;;;;;;348495;28;1278;-66
2022/09/20 00:31:23;;;;;;;;;;;;;;;;;;348687;28;880;-63
2022/09/20 00:31:34;;;;;;;;;;;;;;;;;;348623;28;1483;-63
2022/09/20 00:31:44;;;;;;;;;;;;;;;;;;348675;28;948;-64
2022/09/20 00:31:55;;;;;;;;;;;;;;;;;;348626;28;964;-64
2022/09/20 00:32:05;;;;;;;;;;;;;;;;;;348663;28;987;-64
2022/09/20 00:32:15;;;;;;;;;;;;;;;;;;348592;28;923;-64
2022/09/20 00:32:25;;;;;;;;;;;;;;;;;;348367;28;1973;-64
2022/09/20 00:32:35;;;;;;;;;;;;;;;;;;348471;28;948;-64
2022/09/20 00:32:45;;;;;;;;;;;;;;;;;;348428;28;873;-64
2022/09/20 00:32:56;;;;;;;;;;;;;;;;;;348458;28;973;-63
2022/09/20 00:33:06;;;;;;;;;;;;;;;;;;348378;28;1023;-64
2022/09/20 00:33:16;;;;;;;;;;;;;;;;;;348604;28;913;-64
2022/09/20 00:35:08;;;;;;;;;;;;;;;;;;348504;28;770;-64
2022/09/20 00:35:18;;;;;;;;;;;;;;;;;;348568;28;975;-64
2022/09/20 00:35:29;;;;;;;;;;;;;;;;;;348683;28;960;-64
2022/09/20 00:35:43;;;;;;;;;;;;;;;;;;348674;28;992;-63
2022/09/20 00:35:53;;;;;;;;;;;;;;;;;;348604;28;912;-64
2022/09/20 00:36:04;;;;;;;;;;;;;;;;;;348202;28;1435;-64
2022/09/20 00:36:15;;;;;;;;;;;;;;;;;;349779;28;800;-64
2022/09/20 00:36:28;;;;;;;;;;;;;;;;;;350037;28;909;-64
2022/09/20 00:36:38;;;;;;;;;;;;;;;;;;349977;28;889;-64
2022/09/20 00:36:49;;;;;;;;;;;;;;;;;;350023;28;940;-64
2022/09/20 00:36:59;;;;;;;;;;;;;;;;;;350031;28;909;-64
2022/09/20 00:37:09;;;;;;;;;;;;;;;;;;350014;28;1019;-64
2022/09/20 00:37:19;;;;;;;;;;;;;;;;;;350013;28;984;-64
2022/09/20 00:37:29;;;;;;;;;;;;;;;;;;350036;28;955;-64
2022/09/20 00:37:40;;;;;;;;;;;;;;;;;;350070;28;968;-64
2022/09/20 00:37:51;;;;;;;;;;;;;;;;;;350060;28;937;-64
2022/09/20 00:38:01;;;;;;;;;;;;;;;;;;349988;28;973;-64
2022/09/20 00:38:12;;;;;;;;;;;;;;;;;;350015;28;928;-64
2022/09/20 00:38:22;;;;;;;;;;;;;;;;;;350022;28;802;-64
2022/09/20 00:38:33;;;;;;;;;;;;;;;;;;350058;28;838;-64
2022/09/20 00:38:43;;;;;;;;;;;;;;;;;;349943;28;920;-63
2022/09/20 00:38:54;;;;;;;;;;;;;;;;;;350037;28;798;-64
2022/09/20 00:39:04;;;;;;;;;;;;;;;;;;350034;28;949;-64
2022/09/20 00:39:15;;;;;;;;;;;;;;;;;;350005;28;1035;-64
2022/09/20 00:39:25;;;;;;;;;;;;;;;;;;349968;28;921;-64
2022/09/20 00:39:35;;;;;;;;;;;;;;;;;;350037;28;956;-64
2022/09/20 00:39:45;;;;;;;;;;;;;;;;;;350071;28;868;-64
2022/09/20 00:39:55;;;;;;;;;;;;;;;;;;349965;28;913;-64
2022/09/20 00:40:07;;;;;;;;;;;;;;;;;;350016;28;932;-64
2022/09/20 00:40:19;;;;;;;;;;;;;;;;;;350022;28;929;-64
2022/09/20 00:40:29;;;;;;;;;;;;;;;;;;349938;28;960;-64
2022/09/20 00:40:41;;;;;;;;;;;;;;;;;;350045;28;1104;-64
2022/09/20 00:40:51;;;;;;;;;;;;;;;;;;350006;28;983;-64
2022/09/20 00:41:01;;;;;;;;;;;;;;;;;;349970;28;944;-64
2022/09/20 00:41:11;;;;;;;;;;;;;;;;;;350016;28;828;-64
2022/09/20 00:41:22;;;;;;;;;;;;;;;;;;350040;28;779;-63
2022/09/20 00:41:32;;;;;;;;;;;;;;;;;;349913;28;1137;-64
2022/09/20 00:41:43;;;;;;;;;;;;;;;;;;349974;28;803;-64
2022/09/20 00:41:53;;;;;;;;;;;;;;;;;;349942;28;1198;-64
2022/09/20 00:42:03;;;;;;;;;;;;;;;;;;350002;28;933;-64
2022/09/20 00:42:14;;;;;;;;;;;;;;;;;;350006;28;940;-64
2022/09/20 00:42:28;;;;;;;;;;;;;;;;;;350025;28;920;-64
2022/09/20 00:42:38;;;;;;;;;;;;;;;;;;350012;28;988;-64
2022/09/20 00:42:49;;;;;;;;;;;;;;;;;;350019;28;929;-64
2022/09/20 00:42:59;;;;;;;;;;;;;;;;;;350011;28;948;-64
2022/09/20 00:43:14;;;;;;;;;;;;;;;;;;349119;28;1387;-64
2022/09/20 00:43:38;;;;;;;;;;;;;;;;;;349905;28;949;-64
2022/09/20 00:43:49;;;;;;;;;;;;;;;;;;349980;28;909;-64
2022/09/20 00:44:00;;;;;;;;;;;;;;;;;;350003;28;941;-64
2022/09/20 00:44:28;;;;;;;;;;;;;;;;;;350042;28;932;-63
2022/09/20 00:45:05;;;;;;;;;;;;;;;;;;349970;28;936;-64
2022/09/20 00:45:21;;;;;;;;;;;;;;;;;;350162;28;1399;-64
2022/09/20 00:45:32;;;;;;;;;;;;;;;;;;349951;28;983;-64
2022/09/20 00:45:45;;;;;;;;;;;;;;;;;;350001;28;933;-64
2022/09/20 00:45:56;;;;;;;;;;;;;;;;;;349997;28;1011;-64
2022/09/20 00:46:17;;;;;;;;;;;;;;;;;;350020;28;842;-64
2022/09/20 00:46:38;;;;;;;;;;;;;;;;;;349282;28;1360;-64
2022/09/20 00:46:49;;;;;;;;;;;;;;;;;;349994;28;925;-64
2022/09/20 00:46:59;;;;;;;;;;;;;;;;;;350022;28;794;-64
2022/09/20 00:47:18;;;;;;;;;;;;;;;;;;349921;28;772;-64
2022/09/20 00:47:40;;;;;;;;;;;;;;;;;;348618;28;987;-64
2022/09/20 00:47:54;;;;;;;;;;;;;;;;;;348661;28;834;-63
2022/09/20 00:48:16;;;;;;;;;;;;;;;;;;348569;28;996;-64
2022/09/20 00:48:29;;;;;;;;;;;;;;;;;;348658;28;905;-64
2022/09/20 00:48:39;;;;;;;;;;;;;;;;;;348604;28;869;-64
2022/09/20 00:48:52;;;;;;;;;;;;;;;;;;348554;28;1011;-64
2022/09/20 00:49:19;;;;;;;;;;;;;;;;;;348639;28;961;-63
2022/09/20 00:49:29;;;;;;;;;;;;;;;;;;348663;28;916;-64
2022/09/20 00:49:39;;;;;;;;;;;;;;;;;;348591;28;798;-64
2022/09/20 00:49:51;;;;;;;;;;;;;;;;;;348628;28;1099;-64
2022/09/20 00:50:07;;;;;;;;;;;;;;;;;;348631;28;1004;-64
2022/09/20 00:50:38;;;;;;;;;;;;;;;;;;348637;28;995;-64
2022/09/20 00:50:50;;;;;;;;;;;;;;;;;;348609;28;870;-63
2022/09/20 00:51:09;;;;;;;;;;;;;;;;;;348635;28;845;-63
2022/09/20 00:51:24;;;;;;;;;;;;;;;;;;348588;28;1039;-64
2022/09/20 00:51:36;;;;;;;;;;;;;;;;;;348581;28;913;-64
2022/09/20 00:51:59;;;;;;;;;;;;;;;;;;348598;28;979;-64
2022/09/20 00:52:10;;;;;;;;;;;;;;;;;;348638;28;924;-64
2022/09/20 00:52:20;;;;;;;;;;;;;;;;;;348579;28;971;-64
2022/09/20 00:52:31;;;;;;;;;;;;;;;;;;348543;28;1899;-64
2022/09/20 00:52:44;;;;;;;;;;;;;;;;;;348591;28;988;-63
2022/09/20 00:52:59;;;;;;;;;;;;;;;;;;348681;28;847;-64
2022/09/20 00:53:13;;;;;;;;;;;;;;;;;;348618;28;980;-64
2022/09/20 00:53:34;;;;;;;;;;;;;;;;;;348399;28;1418;-64
2022/09/20 00:53:47;;;;;;;;;;;;;;;;;;348623;28;913;-64
2022/09/20 00:54:01;;;;;;;;;;;;;;;;;;348579;28;921;-63
2022/09/20 00:54:12;;;;;;;;;;;;;;;;;;348631;28;957;-64
2022/09/20 00:54:24;;;;;;;;;;;;;;;;;;348612;28;964;-64
2022/09/20 00:54:35;;;;;;;;;;;;;;;;;;348651;28;996;-64
2022/09/20 00:54:45;;;;;;;;;;;;;;;;;;348613;28;925;-64
2022/09/20 00:54:55;;;;;;;;;;;;;;;;;;348614;28;1003;-63
2022/09/20 00:55:06;;;;;;;;;;;;;;;;;;348647;28;987;-64
2022/09/20 00:55:17;;;;;;;;;;;;;;;;;;348595;28;928;-64
2022/09/20 00:55:28;;;;;;;;;;;;;;;;;;348524;28;956;-64
2022/09/20 00:55:46;;;;;;;;;;;;;;;;;;348650;28;949;-64
2022/09/20 00:56:00;;;;;;;;;;;;;;;;;;348710;28;893;-63
2022/09/20 00:56:13;;;;;;;;;;;;;;;;;;348603;28;824;-64
2022/09/20 00:56:28;;;;;;;;;;;;;;;;;;348612;28;949;-64
2022/09/20 00:56:42;;;;;;;;;;;;;;;;;;348605;28;929;-64
2022/09/20 00:56:53;;;;;;;;;;;;;;;;;;348562;28;916;-64
2022/09/20 00:57:03;;;;;;;;;;;;;;;;;;348612;28;984;-64
2022/09/20 00:57:13;;;;;;;;;;;;;;;;;;348632;28;1017;-64
2022/09/20 00:57:24;;;;;;;;;;;;;;;;;;348591;28;836;-64
2022/09/20 00:57:35;;;;;;;;;;;;;;;;;;348599;28;917;-64
2022/09/20 00:57:45;;;;;;;;;;;;;;;;;;348643;28;841;-64
2022/09/20 00:57:57;;;;;;;;;;;;;;;;;;348656;28;775;-64
2022/09/20 00:58:08;;;;;;;;;;;;;;;;;;348642;28;912;-64
2022/09/20 00:58:20;;;;;;;;;;;;;;;;;;348653;28;920;-64
2022/09/20 00:58:34;;;;;;;;;;;;;;;;;;348646;28;920;-64
2022/09/20 00:58:53;;;;;;;;;;;;;;;;;;348655;28;845;-64
2022/09/20 00:59:16;;;;;;;;;;;;;;;;;;348648;28;1067;-64
2022/09/20 00:59:31;;;;;;;;;;;;;;;;;;348588;28;1013;-64
2022/09/20 00:59:44;;;;;;;;;;;;;;;;;;348580;28;913;-64
2022/09/20 00:59:55;;;;;;;;;;;;;;;;;;348613;28;984;-64
2022/09/20 01:00:06;;;;;;;;;;;;;;;;;;348554;28;806;-64
2022/09/20 01:00:17;;;;;;;;;;;;;;;;;;348658;28;798;-64
2022/09/20 01:00:28;;;;;;;;;;;;;;;;;;348671;28;1008;-64
2022/09/20 01:00:38;;;;;;;;;;;;;;;;;;348582;28;928;-64
2022/09/20 01:00:50;;;;;;;;;;;;;;;;;;348578;28;965;-64
2022/09/20 01:01:02;;;;;;;;;;;;;;;;;;348583;28;1023;-64
2022/09/20 01:01:12;;;;;;;;;;;;;;;;;;348609;28;932;-64
2022/09/20 01:01:23;;;;;;;;;;;;;;;;;;348608;28;993;-64
2022/09/20 01:01:33;;;;;;;;;;;;;;;;;;348653;28;1039;-63
2022/09/20 01:01:45;;;;;;;;;;;;;;;;;;348545;28;913;-64
2022/09/20 01:02:01;;;;;;;;;;;;;;;;;;348602;28;905;-64
2022/09/20 01:02:15;;;;;;;;;;;;;;;;;;348700;28;921;-64
2022/09/20 01:02:29;;;;;;;;;;;;;;;;;;348578;28;965;-64
2022/09/20 01:02:46;;;;;;;;;;;;;;;;;;348616;28;826;-64
2022/09/20 01:03:00;;;;;;;;;;;;;;;;;;348589;28;1015;-64
2022/09/20 01:03:11;;;;;;;;;;;;;;;;;;348640;28;1063;-64
2022/09/20 01:03:24;;;;;;;;;;;;;;;;;;348639;28;1051;-63
2022/09/20 01:03:35;;;;;;;;;;;;;;;;;;348555;28;921;-64
2022/09/20 01:03:46;;;;;;;;;;;;;;;;;;348584;28;854;-63
2022/09/20 01:03:59;;;;;;;;;;;;;;;;;;348608;28;865;-64
2022/09/20 01:04:10;;;;;;;;;;;;;;;;;;348566;28;991;-64
2022/09/20 01:04:22;;;;;;;;;;;;;;;;;;348639;28;817;-63
2022/09/20 01:04:34;;;;;;;;;;;;;;;;;;348621;28;949;-64
2022/09/20 01:04:45;;;;;;;;;;;;;;;;;;348664;28;996;-64
2022/09/20 01:04:56;;;;;;;;;;;;;;;;;;348617;28;909;-64
2022/09/20 01:05:08;;;;;;;;;;;;;;;;;;348570;28;839;-64
2022/09/20 01:05:19;;;;;;;;;;;;;;;;;;348621;28;802;-64
2022/09/20 01:05:29;;;;;;;;;;;;;;;;;;348659;28;1786;-64
2022/09/20 01:05:40;;;;;;;;;;;;;;;;;;348574;28;1015;-64
2022/09/20 01:05:51;;;;;;;;;;;;;;;;;;348580;28;963;-63
2022/09/20 01:06:05;;;;;;;;;;;;;;;;;;348567;28;949;-64
2022/09/20 01:06:15;;;;;;;;;;;;;;;;;;348609;28;917;-63
2022/09/20 01:06:26;;;;;;;;;;;;;;;;;;348628;28;928;-64
2022/09/20 01:06:36;;;;;;;;;;;;;;;;;;348668;28;850;-64
2022/09/20 01:06:48;;;;;;;;;;;;;;;;;;348639;28;917;-64
2022/09/20 01:07:00;;;;;;;;;;;;;;;;;;348542;28;995;-64
2022/09/20 01:07:12;;;;;;;;;;;;;;;;;;348628;28;849;-64
2022/09/20 01:07:23;;;;;;;;;;;;;;;;;;348603;28;940;-64
2022/09/20 01:07:34;;;;;;;;;;;;;;;;;;348642;28;917;-64
2022/09/20 01:07:45;;;;;;;;;;;;;;;;;;348604;28;960;-64
2022/09/20 01:07:56;;;;;;;;;;;;;;;;;;348502;28;964;-64
2022/09/20 01:08:07;;;;;;;;;;;;;;;;;;348600;28;806;-64
2022/09/20 01:08:18;;;;;;;;;;;;;;;;;;348279;28;1315;-64
2022/09/20 01:08:30;;;;;;;;;;;;;;;;;;349950;28;1081;-64
2022/09/20 01:08:43;;;;;;;;;;;;;;;;;;349957;28;900;-64
2022/09/20 01:08:55;;;;;;;;;;;;;;;;;;349955;28;897;-64
2022/09/20 01:09:06;;;;;;;;;;;;;;;;;;349955;28;972;-64
2022/09/20 01:09:17;;;;;;;;;;;;;;;;;;349992;28;846;-64
2022/09/20 01:09:27;;;;;;;;;;;;;;;;;;349973;28;960;-63
2022/09/20 01:09:37;;;;;;;;;;;;;;;;;;350000;28;900;-64
2022/09/20 01:09:47;;;;;;;;;;;;;;;;;;349989;28;988;-64
2022/09/20 01:09:58;;;;;;;;;;;;;;;;;;349943;28;988;-64
2022/09/20 01:10:08;;;;;;;;;;;;;;;;;;349958;28;1066;-64
2022/09/20 01:10:18;;;;;;;;;;;;;;;;;;349950;28;936;-64
2022/09/20 01:10:29;;;;;;;;;;;;;;;;;;349950;28;1090;-64
2022/09/20 01:10:39;;;;;;;;;;;;;;;;;;350004;28;933;-64
2022/09/20 01:10:50;;;;;;;;;;;;;;;;;;349942;28;1000;-64
2022/09/20 01:11:01;;;;;;;;;;;;;;;;;;349958;28;1152;-64
2022/09/20 01:11:11;;;;;;;;;;;;;;;;;;350024;28;928;-64
2022/09/20 01:11:21;;;;;;;;;;;;;;;;;;349931;27;952;-64
2022/09/20 01:11:33;;;;;;;;;;;;;;;;;;350007;28;786;-64
2022/09/20 01:11:44;;;;;;;;;;;;;;;;;;349993;28;1198;-64
2022/09/20 01:11:56;;;;;;;;;;;;;;;;;;349987;28;905;-63
2022/09/20 01:12:11;;;;;;;;;;;;;;;;;;349923;28;758;-64
2022/09/20 01:12:23;;;;;;;;;;;;;;;;;;349981;28;830;-64
2022/09/20 01:12:34;;;;;;;;;;;;;;;;;;349869;28;1909;-64
2022/09/20 01:12:45;;;;;;;;;;;;;;;;;;349972;28;925;-64
2022/09/20 01:12:55;;;;;;;;;;;;;;;;;;350046;28;889;-64
2022/09/20 01:13:05;;;;;;;;;;;;;;;;;;349908;28;912;-64
2022/09/20 01:13:15;;;;;;;;;;;;;;;;;;350010;28;865;-64
2022/09/20 01:13:25;;;;;;;;;;;;;;;;;;350000;28;1015;-64
2022/09/20 01:13:35;;;;;;;;;;;;;;;;;;349960;28;1063;-64
2022/09/20 01:13:46;;;;;;;;;;;;;;;;;;350030;28;821;-63
2022/09/20 01:13:56;;;;;;;;;;;;;;;;;;349962;28;929;-64
2022/09/20 01:14:07;;;;;;;;;;;;;;;;;;349892;28;904;-63
2022/09/20 01:14:18;;;;;;;;;;;;;;;;;;349975;28;854;-64
2022/09/20 01:14:28;;;;;;;;;;;;;;;;;;349990;28;944;-64
2022/09/20 01:14:40;;;;;;;;;;;;;;;;;;349967;28;993;-64
2022/09/20 01:14:51;;;;;;;;;;;;;;;;;;349986;28;925;-64
2022/09/20 01:15:03;;;;;;;;;;;;;;;;;;349978;28;861;-64
2022/09/20 01:15:14;;;;;;;;;;;;;;;;;;349973;28;802;-64
2022/09/20 01:15:27;;;;;;;;;;;;;;;;;;349942;28;953;-64
2022/09/20 01:15:39;;;;;;;;;;;;;;;;;;350007;28;929;-63
2022/09/20 01:15:50;;;;;;;;;;;;;;;;;;349950;28;900;-64
2022/09/20 01:16:02;;;;;;;;;;;;;;;;;;349964;28;963;-64
2022/09/20 01:16:13;;;;;;;;;;;;;;;;;;349935;28;824;-64
2022/09/20 01:16:25;;;;;;;;;;;;;;;;;;349939;28;1008;-64
2022/09/20 01:16:36;;;;;;;;;;;;;;;;;;349955;28;925;-64
2022/09/20 01:16:46;;;;;;;;;;;;;;;;;;350008;28;1076;-64
2022/09/20 01:17:01;;;;;;;;;;;;;;;;;;348823;28;1931;-64
2022/09/20 01:17:12;;;;;;;;;;;;;;;;;;348590;28;772;-64
2022/09/20 01:17:24;;;;;;;;;;;;;;;;;;348553;28;881;-64
2022/09/20 01:17:36;;;;;;;;;;;;;;;;;;348597;28;936;-64
2022/09/20 01:17:49;;;;;;;;;;;;;;;;;;348601;28;846;-64
2022/09/20 01:18:01;;;;;;;;;;;;;;;;;;348922;28;1904;-63
2022/09/20 01:18:12;;;;;;;;;;;;;;;;;;351310;28;917;-63
2022/09/20 01:18:22;;;;;;;;;;;;;;;;;;351310;28;984;-64
2022/09/20 01:18:33;;;;;;;;;;;;;;;;;;351326;28;1030;-64
2022/09/20 01:18:45;;;;;;;;;;;;;;;;;;351350;28;992;-63
2022/09/20 01:18:57;;;;;;;;;;;;;;;;;;351346;28;941;-64
2022/09/20 01:19:15;;;;;;;;;;;;;;;;;;351374;28;1114;-64
2022/09/20 01:19:36;;;;;;;;;;;;;;;;;;351401;28;869;-64
2022/09/20 01:19:46;;;;;;;;;;;;;;;;;;351393;28;963;-64
2022/09/20 01:20:06;;;;;;;;;;;;;;;;;;351389;28;861;-64
2022/09/20 01:20:19;;;;;;;;;;;;;;;;;;351330;28;905;-64
2022/09/20 01:20:31;;;;;;;;;;;;;;;;;;351380;28;944;-64
2022/09/20 01:20:42;;;;;;;;;;;;;;;;;;351361;28;936;-63
2022/09/20 01:20:53;;;;;;;;;;;;;;;;;;351390;28;904;-63
2022/09/20 01:21:04;;;;;;;;;;;;;;;;;;351325;28;1310;-63
2022/09/20 01:21:17;;;;;;;;;;;;;;;;;;351284;28;984;-64
2022/09/20 01:21:27;;;;;;;;;;;;;;;;;;351398;27;928;-64
2022/09/20 01:21:38;;;;;;;;;;;;;;;;;;351352;28;917;-64
2022/09/20 01:21:49;;;;;;;;;;;;;;;;;;351373;28;838;-64
2022/09/20 01:22:03;;;;;;;;;;;;;;;;;;351356;28;865;-64
2022/09/20 01:22:21;;;;;;;;;;;;;;;;;;351320;28;850;-64
2022/09/20 01:22:40;;;;;;;;;;;;;;;;;;351286;28;921;-64
2022/09/20 01:23:09;;;;;;;;;;;;;;;;;;351346;28;837;-64
2022/09/20 01:23:28;;;;;;;;;;;;;;;;;;348493;28;1007;-63
2022/09/20 01:23:38;;;;;;;;;;;;;;;;;;348590;28;863;-63
2022/09/20 01:24:18;;;;;;;;;;;;;;;;;;348649;28;1067;-63
2022/09/20 01:24:51;;;;;;;;;;;;;;;;;;348404;28;1032;-64
2022/09/20 01:25:15;;;;;;;;;;;;;;;;;;344294;28;981;-64
2022/09/20 01:25:40;;;;;;;;;;;;;;;;;;348400;28;925;-64
2022/09/20 01:25:53;;;;;;;;;;;;;;;;;;348431;28;937;-63
2022/09/20 01:26:22;;;;;;;;;;;;;;;;;;348370;28;1187;-64
2022/09/20 01:26:51;;;;;;;;;;;;;;;;;;348394;28;1012;-64
2022/09/20 01:27:08;;;;;;;;;;;;;;;;;;348514;28;781;-64
2022/09/20 01:27:18;;;;;;;;;;;;;;;;;;348616;28;925;-64
2022/09/20 01:27:39;;;;;;;;;;;;;;;;;;348497;28;987;-64
2022/09/20 01:27:51;;;;;;;;;;;;;;;;;;348997;28;1301;-63
2022/09/20 01:28:01;;;;;;;;;;;;;;;;;;349946;28;842;-64
2022/09/20 01:28:11;;;;;;;;;;;;;;;;;;349989;28;873;-64